createdAt,value
2022-12-10T00:01:28.313Z,56.53
2022-12-10T00:03:56.931Z,60.67
2022-12-10T00:06:26.936Z,66.50
2022-12-10T00:08:54.903Z,59.72
2022-12-10T00:11:24.422Z,58.78
2022-12-10T00:13:53.361Z,56.97
2022-12-10T00:16:24.003Z,64.13
2022-12-10T00:18:52.996Z,58.05
2022-12-10T00:21:22.701Z,62.42
2022-12-10T00:23:50.865Z,65.72
2022-12-10T00:26:21.479Z,64.43
2022-12-10T00:28:50.563Z,62.38
2022-12-10T00:31:20.275Z,56.60
2022-12-10T00:33:50.507Z,62.75
2022-12-10T00:36:21.482Z,57.30
2022-12-10T00:38:50.401Z,61.05
2022-12-10T00:41:18.878Z,60.45
2022-12-10T00:43:47.002Z,63.88
2022-12-10T00:46:16.464Z,57.58
2022-12-10T00:48:45.451Z,59.88
2022-12-10T00:51:18.147Z,65.63
2022-12-10T00:53:47.501Z,61.80
2022-12-10T00:56:19.250Z,54.33
2022-12-10T00:58:48.437Z,66.70
2022-12-10T01:01:19.209Z,51.25
2022-12-10T01:03:47.740Z,62.33
2022-12-10T01:06:19.526Z,54.17
2022-12-10T01:08:49.025Z,57.42
2022-12-10T01:11:19.055Z,54.00
2022-12-10T01:13:48.278Z,62.85
2022-12-10T01:16:19.037Z,67.28
2022-12-10T01:18:47.475Z,58.60
2022-12-10T01:21:19.074Z,63.60
2022-12-10T01:23:50.342Z,56.88
2022-12-10T01:26:20.430Z,65.43
2022-12-10T01:28:49.331Z,60.85
2022-12-10T01:31:20.466Z,60.40
2022-12-10T01:33:48.997Z,62.75
2022-12-10T01:36:20.708Z,60.72
2022-12-10T01:38:49.297Z,59.40
2022-12-10T01:41:20.358Z,62.03
2022-12-10T01:43:54.909Z,66.63
2022-12-10T01:46:24.508Z,75.85
2022-12-10T01:48:53.106Z,61.38
2022-12-10T01:51:23.881Z,62.53
2022-12-10T01:53:52.689Z,68.72
2022-12-10T01:56:21.763Z,65.70
2022-12-10T01:58:51.449Z,68.28
2022-12-10T02:01:33.317Z,63.70
2022-12-10T02:04:13.780Z,60.38
2022-12-10T02:06:50.382Z,69.63
2022-12-10T02:09:27.803Z,62.80
2022-12-10T02:12:04.853Z,63.55
2022-12-10T02:14:41.029Z,70.70
2022-12-10T02:17:15.410Z,63.35
2022-12-10T02:20:01.905Z,65.63
2022-12-10T02:22:35.315Z,60.55
2022-12-10T02:25:05.578Z,71.88
2022-12-10T02:27:42.471Z,61.72
2022-12-10T02:30:12.250Z,61.30
2022-12-10T02:32:42.742Z,70.82
2022-12-10T02:35:16.230Z,76.40
2022-12-10T02:37:49.574Z,63.88
2022-12-10T02:40:22.028Z,66.32
2022-12-10T02:42:52.464Z,65.10
2022-12-10T02:45:25.199Z,65.63
2022-12-10T02:47:55.715Z,69.03
2022-12-10T02:50:24.689Z,59.60
2022-12-10T02:52:53.259Z,72.43
2022-12-10T02:55:21.591Z,61.70
2022-12-10T02:58:05.071Z,72.80
2022-12-10T03:00:37.842Z,64.10
2022-12-10T03:03:19.031Z,67.80
2022-12-10T03:05:52.238Z,65.18
2022-12-10T03:08:25.292Z,64.35
2022-12-10T03:10:57.777Z,75.35
2022-12-10T03:13:34.879Z,70.20
2022-12-10T03:16:06.204Z,80.05
2022-12-10T03:18:38.530Z,88.00
2022-12-10T03:21:09.211Z,84.32
2022-12-10T03:23:42.763Z,83.25
2022-12-10T03:26:11.787Z,87.18
2022-12-10T03:28:43.694Z,91.72
2022-12-10T03:31:15.967Z,84.60
2022-12-10T03:33:44.966Z,105.50
2022-12-10T03:36:14.313Z,87.40
2022-12-10T03:38:43.039Z,112.57
2022-12-10T03:41:11.414Z,92.63
2022-12-10T03:43:52.671Z,95.35
2022-12-10T03:46:23.010Z,100.13
2022-12-10T03:48:51.026Z,95.45
2022-12-10T03:51:19.141Z,93.60
2022-12-10T03:53:47.065Z,99.30
2022-12-10T03:56:15.040Z,98.82
2022-12-10T03:58:43.004Z,103.28
2022-12-10T04:01:11.049Z,92.90
2022-12-10T04:03:42.323Z,97.63
2022-12-10T04:06:12.699Z,102.90
2022-12-10T04:08:40.636Z,106.18
2022-12-10T04:11:12.151Z,100.93
2022-12-10T04:13:58.076Z,103.15
2022-12-10T04:16:30.005Z,110.55
2022-12-10T04:19:01.642Z,107.93
2022-12-10T04:21:49.216Z,117.25
2022-12-10T04:24:35.159Z,101.82
2022-12-10T04:27:08.407Z,111.63
2022-12-10T04:29:36.528Z,106.95
2022-12-10T04:32:04.748Z,114.57
2022-12-10T04:34:34.064Z,105.28
2022-12-10T04:37:03.060Z,100.32
2022-12-10T04:39:31.054Z,106.95
2022-12-10T04:41:59.118Z,88.65
2022-12-10T04:44:27.108Z,86.53
2022-12-10T04:46:55.164Z,89.68
2022-12-10T04:49:23.107Z,81.72
2022-12-10T04:51:53.930Z,83.00
2022-12-10T04:54:22.152Z,68.43
2022-12-10T04:56:50.072Z,79.70
2022-12-10T04:59:18.471Z,78.40
2022-12-10T05:01:46.788Z,82.78
2022-12-10T05:04:17.373Z,96.65
2022-12-10T05:06:46.223Z,86.93
2022-12-10T05:09:16.000Z,87.10
2022-12-10T05:11:45.420Z,91.30
2022-12-10T05:14:14.015Z,82.05
2022-12-10T05:16:42.430Z,86.00
2022-12-10T05:19:11.715Z,79.57
2022-12-10T05:22:02.682Z,79.40
2022-12-10T05:24:32.094Z,68.85
2022-12-10T05:27:00.159Z,80.40
2022-12-10T05:29:28.234Z,77.28
2022-12-10T05:31:56.271Z,71.35
2022-12-10T05:34:24.407Z,79.93
2022-12-10T05:36:52.358Z,87.70
2022-12-10T05:39:20.511Z,88.57
2022-12-10T05:41:49.809Z,70.35
2022-12-10T05:44:17.779Z,79.72
2022-12-10T05:46:45.919Z,107.03
2022-12-10T05:49:14.060Z,88.47
2022-12-10T05:51:42.079Z,107.70
2022-12-10T05:54:11.507Z,84.95
2022-12-10T05:56:39.700Z,104.72
2022-12-10T05:59:14.813Z,99.45
2022-12-10T06:01:45.026Z,104.47
2022-12-10T06:04:13.562Z,104.10
2022-12-10T06:06:42.321Z,118.72
2022-12-10T06:09:13.979Z,105.63
2022-12-10T06:11:42.033Z,100.75
2022-12-10T06:14:12.429Z,103.70
2022-12-10T06:16:41.645Z,106.78
2022-12-10T06:19:09.555Z,102.75
2022-12-10T06:21:37.511Z,87.07
2022-12-10T06:24:05.712Z,91.85
2022-12-10T06:26:33.708Z,88.85
2022-12-10T06:29:02.348Z,86.43
2022-12-10T06:31:31.806Z,106.90
2022-12-10T06:33:59.806Z,91.53
2022-12-10T06:36:27.701Z,89.82
2022-12-10T06:38:55.649Z,102.35
2022-12-10T06:41:23.842Z,92.65
2022-12-10T06:43:51.919Z,110.22
2022-12-10T06:46:22.604Z,90.10
2022-12-10T06:48:52.161Z,102.07
2022-12-10T06:51:20.657Z,96.63
2022-12-10T06:53:49.062Z,93.50
2022-12-10T06:56:19.016Z,84.20
2022-12-10T06:58:47.300Z,105.32
2022-12-10T07:01:17.094Z,104.70
2022-12-10T07:03:45.605Z,93.35
2022-12-10T07:06:14.956Z,110.00
2022-12-10T07:08:43.151Z,84.47
2022-12-10T07:11:13.349Z,106.03
2022-12-10T07:13:41.963Z,97.00
2022-12-10T07:16:15.776Z,94.43
2022-12-10T07:21:22.967Z,106.22
2022-12-10T07:23:51.591Z,84.93
2022-12-10T07:26:19.791Z,92.53
2022-12-10T07:28:53.007Z,100.57
2022-12-10T07:33:50.336Z,74.25
2022-12-10T07:36:18.513Z,99.40
2022-12-10T07:38:48.098Z,103.78
2022-12-10T07:41:16.302Z,94.47
2022-12-10T07:46:34.946Z,89.57
2022-12-10T07:49:05.215Z,100.30
2022-12-10T07:51:35.761Z,95.30
2022-12-10T07:54:08.281Z,117.00
2022-12-10T07:56:36.221Z,95.35
2022-12-10T07:59:04.448Z,94.47
2022-12-10T08:01:32.534Z,90.85
2022-12-10T08:04:00.483Z,96.22
2022-12-10T08:06:30.880Z,111.00
2022-12-10T08:09:01.333Z,95.68
2022-12-10T08:11:31.097Z,104.10
2022-12-10T08:13:59.502Z,90.18
2022-12-10T08:16:29.991Z,86.65
2022-12-10T08:18:59.551Z,99.13
2022-12-10T08:21:29.765Z,99.20
2022-12-10T08:23:58.041Z,104.38
2022-12-10T08:26:29.085Z,88.30
2022-12-10T08:28:59.940Z,116.03
2022-12-10T08:31:34.326Z,91.50
2022-12-10T08:34:05.862Z,102.72
2022-12-10T08:36:34.363Z,90.18
2022-12-10T08:39:06.287Z,95.22
2022-12-10T08:41:34.269Z,102.82
2022-12-10T08:44:04.006Z,93.28
2022-12-10T08:46:32.394Z,86.07
2022-12-10T08:49:00.811Z,88.63
2022-12-10T08:51:30.012Z,85.05
2022-12-10T08:53:58.286Z,88.82
2022-12-10T08:56:26.461Z,79.55
2022-12-10T08:58:55.224Z,79.85
2022-12-10T09:01:25.614Z,84.20
2022-12-10T09:03:55.183Z,75.07
2022-12-10T09:06:26.018Z,81.82
2022-12-10T09:08:54.936Z,77.18
2022-12-10T09:11:25.295Z,81.05
2022-12-10T09:13:54.271Z,84.75
2022-12-10T09:16:22.476Z,85.93
2022-12-10T09:18:51.807Z,67.90
2022-12-10T09:21:20.272Z,82.10
2022-12-10T09:23:48.594Z,83.68
2022-12-10T09:26:19.087Z,76.03
2022-12-10T09:28:49.105Z,75.95
2022-12-10T09:31:20.300Z,68.00
2022-12-10T09:33:51.964Z,81.95
2022-12-10T09:36:21.485Z,94.28
2022-12-10T09:38:50.393Z,74.78
2022-12-10T09:41:46.390Z,71.55
2022-12-10T09:44:24.122Z,75.97
2022-12-10T09:46:55.679Z,72.20
2022-12-10T09:49:35.752Z,88.97
2022-12-10T09:52:07.539Z,86.82
2022-12-10T09:54:40.499Z,73.97
2022-12-10T09:57:14.359Z,80.20
2022-12-10T10:02:23.458Z,68.50
2022-12-10T10:04:55.851Z,69.18
2022-12-10T10:07:26.749Z,87.03
2022-12-10T10:09:59.476Z,84.55
2022-12-10T10:12:30.593Z,73.05
2022-12-10T10:14:58.683Z,77.90
2022-12-10T10:17:38.506Z,81.93
2022-12-10T10:20:09.142Z,83.15
2022-12-10T10:22:38.090Z,85.60
2022-12-10T10:25:08.224Z,78.85
2022-12-10T10:27:36.304Z,81.72
2022-12-10T10:30:06.545Z,87.75
2022-12-10T10:32:52.504Z,87.15
2022-12-10T10:35:28.097Z,94.50
2022-12-10T10:38:00.704Z,95.03
2022-12-10T10:40:32.889Z,84.70
2022-12-10T10:43:02.827Z,95.88
2022-12-10T10:45:41.242Z,85.00
2022-12-10T10:48:14.742Z,70.32
2022-12-10T10:50:47.361Z,80.18
2022-12-10T10:53:44.520Z,72.03
2022-12-10T10:56:18.807Z,72.18
2022-12-10T10:58:53.016Z,78.40
2022-12-10T11:01:22.567Z,94.22
2022-12-10T11:03:55.773Z,80.40
2022-12-10T11:06:25.792Z,81.70
2022-12-10T11:09:02.975Z,66.75
2022-12-10T11:11:36.938Z,60.13
2022-12-10T11:17:02.608Z,60.33
2022-12-10T11:19:30.786Z,71.38
2022-12-10T11:22:24.102Z,79.38
2022-12-10T11:24:53.483Z,72.60
2022-12-10T11:27:39.758Z,66.43
2022-12-10T11:30:25.221Z,63.30
2022-12-10T11:33:19.087Z,66.95
2022-12-10T11:35:57.392Z,72.35
2022-12-10T11:38:35.733Z,75.35
2022-12-10T11:41:16.490Z,76.57
2022-12-10T11:43:53.570Z,68.65
2022-12-10T11:46:46.746Z,77.68
2022-12-10T11:49:25.318Z,60.45
2022-12-10T11:52:05.585Z,71.93
2022-12-10T11:54:57.588Z,70.97
2022-12-10T11:57:39.747Z,62.55
2022-12-10T12:00:20.597Z,68.32
2022-12-10T12:03:05.575Z,71.28
2022-12-10T12:05:48.788Z,62.63
2022-12-10T12:08:31.541Z,81.97
2022-12-10T12:11:41.581Z,67.90
2022-12-10T12:14:19.580Z,68.43
2022-12-10T12:17:00.263Z,57.67
2022-12-10T12:19:35.762Z,72.43
2022-12-10T12:22:14.179Z,56.58
2022-12-10T12:24:46.450Z,64.75
2022-12-10T12:27:26.705Z,76.70
2022-12-10T12:30:06.791Z,63.95
2022-12-10T12:32:51.830Z,64.32
2022-12-10T12:35:25.889Z,60.20
2022-12-10T12:37:59.374Z,64.68
2022-12-10T12:40:31.945Z,66.10
2022-12-10T12:43:21.912Z,56.55
2022-12-10T12:45:54.090Z,53.20
2022-12-10T12:48:28.612Z,53.47
2022-12-10T12:51:01.159Z,59.67
2022-12-10T12:53:34.992Z,53.75
2022-12-10T12:56:10.373Z,54.25
2022-12-10T12:58:44.869Z,51.95
2022-12-10T13:01:23.298Z,55.75
2022-12-10T13:03:55.611Z,58.08
2022-12-10T13:06:27.450Z,58.15
2022-12-10T13:09:00.994Z,54.25
2022-12-10T13:11:35.016Z,56.17
2022-12-10T13:14:39.904Z,49.38
2022-12-10T13:20:32.839Z,54.35
2022-12-10T13:23:04.640Z,62.85
2022-12-10T13:25:58.604Z,60.45
2022-12-10T13:28:35.387Z,71.10
2022-12-10T13:31:34.706Z,62.85
2022-12-10T13:34:36.837Z,62.13
2022-12-10T13:37:32.504Z,55.95
2022-12-10T13:40:26.510Z,53.22
2022-12-10T13:43:23.625Z,56.47
2022-12-10T13:46:28.961Z,54.92
2022-12-10T13:48:59.171Z,45.17
2022-12-10T13:51:45.371Z,48.20
2022-12-10T13:54:46.701Z,48.75
2022-12-10T13:57:48.636Z,53.03
2022-12-10T14:00:23.912Z,53.30
2022-12-10T14:03:31.857Z,51.97
2022-12-10T14:06:20.841Z,45.72
2022-12-10T14:09:04.653Z,52.53
2022-12-10T14:11:39.951Z,45.17
2022-12-10T14:14:16.363Z,51.63
2022-12-10T14:16:44.708Z,46.17
2022-12-10T14:19:35.566Z,58.20
2022-12-10T14:22:10.127Z,54.42
2022-12-10T14:24:41.028Z,57.70
2022-12-10T14:27:15.108Z,54.13
2022-12-10T14:29:48.722Z,55.88
2022-12-10T14:32:22.883Z,53.45
2022-12-10T14:34:54.857Z,54.95
2022-12-10T14:37:27.046Z,55.15
2022-12-10T14:39:55.819Z,48.53
2022-12-10T14:42:24.906Z,50.60
2022-12-10T14:45:00.734Z,55.72
2022-12-10T14:47:34.628Z,53.33
2022-12-10T14:52:36.693Z,56.72
2022-12-10T14:55:08.662Z,47.85
2022-12-10T14:57:40.740Z,48.33
2022-12-10T15:00:16.102Z,53.15
2022-12-10T15:02:46.859Z,49.70
2022-12-10T15:05:18.608Z,52.03
2022-12-10T15:07:53.050Z,56.55
2022-12-10T15:10:26.374Z,55.08
2022-12-10T15:12:56.536Z,57.08
2022-12-10T15:15:31.945Z,56.92
2022-12-10T15:18:02.573Z,71.10
2022-12-10T15:20:34.032Z,55.03
2022-12-10T15:23:20.042Z,56.47
2022-12-10T15:25:52.501Z,66.95
2022-12-10T15:28:29.123Z,53.63
2022-12-10T15:31:14.195Z,58.58
2022-12-10T15:33:46.294Z,59.95
2022-12-10T15:36:21.218Z,76.63
2022-12-10T15:38:49.705Z,60.53
2022-12-10T15:41:49.842Z,61.20
2022-12-10T15:44:28.108Z,63.55
2022-12-10T15:47:03.243Z,65.93
2022-12-10T15:49:31.406Z,60.40
2022-12-10T15:52:00.039Z,53.83
2022-12-10T15:54:34.580Z,64.03
2022-12-10T15:57:06.593Z,54.60
2022-12-10T15:59:34.824Z,58.00
2022-12-10T16:02:04.757Z,63.75
2022-12-10T16:04:32.822Z,69.53
2022-12-10T16:07:00.882Z,62.55
2022-12-10T16:09:29.022Z,74.78
2022-12-10T16:11:57.090Z,60.63
2022-12-10T16:14:25.110Z,56.42
2022-12-10T16:16:53.359Z,68.25
2022-12-10T16:19:22.852Z,73.50
2022-12-10T16:21:50.813Z,68.82
2022-12-10T16:24:18.987Z,63.25
2022-12-10T16:26:46.968Z,76.78
2022-12-10T16:29:15.708Z,73.88
2022-12-10T16:31:43.898Z,72.28
2022-12-10T16:34:12.062Z,58.38
2022-12-10T16:36:41.738Z,75.45
2022-12-10T16:39:10.342Z,65.90
2022-12-10T16:41:38.355Z,62.13
2022-12-10T16:44:06.482Z,69.63
2022-12-10T16:46:34.469Z,71.18
2022-12-10T16:49:02.656Z,64.82
2022-12-10T16:51:31.917Z,66.85
2022-12-10T16:54:01.219Z,71.13
2022-12-10T16:56:29.443Z,73.72
2022-12-10T16:58:57.411Z,75.40
2022-12-10T17:01:29.695Z,69.85
2022-12-10T17:03:57.673Z,73.93
2022-12-10T17:06:26.118Z,70.65
2022-12-10T17:08:54.544Z,78.45
2022-12-10T17:11:43.848Z,88.75
2022-12-10T17:14:23.662Z,80.85
2022-12-10T17:16:53.021Z,86.70
2022-12-10T17:19:22.090Z,76.97
2022-12-10T17:21:50.318Z,76.65
2022-12-10T17:24:18.437Z,66.40
2022-12-10T17:26:49.915Z,79.20
2022-12-10T17:29:20.134Z,66.10
2022-12-10T17:31:48.265Z,78.97
2022-12-10T17:34:17.923Z,78.90
2022-12-10T17:36:46.586Z,86.13
2022-12-10T17:39:22.096Z,85.70
2022-12-10T17:41:52.238Z,81.22
2022-12-10T17:44:22.902Z,84.85
2022-12-10T17:46:50.933Z,78.15
2022-12-10T17:49:19.061Z,84.53
2022-12-10T17:51:47.723Z,82.53
2022-12-10T17:54:15.950Z,73.25
2022-12-10T17:56:45.266Z,65.80
2022-12-10T17:59:16.225Z,72.50
2022-12-10T18:01:48.597Z,78.45
2022-12-10T18:04:17.584Z,80.80
2022-12-10T18:06:45.816Z,79.03
2022-12-10T18:09:13.988Z,76.53
2022-12-10T18:11:44.766Z,95.75
2022-12-10T18:14:15.617Z,88.75
2022-12-10T18:16:44.193Z,91.10
2022-12-10T18:19:16.335Z,89.88
2022-12-10T18:21:44.567Z,83.13
2022-12-10T18:24:13.415Z,78.10
2022-12-10T18:26:41.548Z,88.25
2022-12-10T18:29:14.970Z,76.45
2022-12-10T18:31:45.678Z,65.72
2022-12-10T18:34:15.434Z,73.00
2022-12-10T18:36:45.676Z,72.10
2022-12-10T18:39:18.236Z,64.93
2022-12-10T18:41:46.743Z,60.58
2022-12-10T18:44:17.131Z,77.22
2022-12-10T18:46:46.464Z,70.07
2022-12-10T18:49:15.856Z,72.63
2022-12-10T18:51:44.217Z,80.25
2022-12-10T18:54:12.769Z,79.68
2022-12-10T18:56:41.503Z,78.53
2022-12-10T18:59:14.516Z,74.80
2022-12-10T19:01:42.664Z,86.83
2022-12-10T19:04:13.281Z,87.95
2022-12-10T19:06:41.948Z,89.22
2022-12-10T19:09:18.621Z,77.20
2022-12-10T19:11:49.679Z,86.72
2022-12-10T19:14:19.245Z,90.00
2022-12-10T19:16:48.006Z,89.43
2022-12-10T19:19:37.076Z,104.03
2022-12-10T19:22:07.357Z,87.82
2022-12-10T19:24:39.198Z,107.35
2022-12-10T19:27:12.451Z,90.15
2022-12-10T19:29:41.598Z,88.35
2022-12-10T19:32:12.987Z,92.20
2022-12-10T19:34:42.536Z,96.63
2022-12-10T19:37:12.003Z,88.05
2022-12-10T19:39:39.942Z,100.47
2022-12-10T19:42:08.079Z,101.65
2022-12-10T19:44:36.097Z,87.13
2022-12-10T19:47:04.162Z,98.57
2022-12-10T19:49:32.301Z,95.40
2022-12-10T19:52:01.603Z,110.00
2022-12-10T19:54:29.514Z,98.30
2022-12-10T19:56:57.746Z,101.18
2022-12-10T19:59:25.729Z,91.95
2022-12-10T20:01:53.853Z,89.90
2022-12-10T20:04:22.178Z,91.82
2022-12-10T20:06:51.381Z,98.43
2022-12-10T20:09:23.884Z,95.00
2022-12-10T20:11:52.981Z,88.32
2022-12-10T20:14:24.708Z,102.40
2022-12-10T20:16:59.450Z,93.82
2022-12-10T20:19:28.102Z,83.25
2022-12-10T20:21:56.247Z,99.10
2022-12-10T20:24:25.593Z,96.55
2022-12-10T20:26:53.667Z,94.22
2022-12-10T20:29:24.128Z,92.85
2022-12-10T20:31:53.594Z,94.25
2022-12-10T20:34:23.429Z,86.35
2022-12-10T20:36:52.189Z,98.10
2022-12-10T20:39:22.551Z,97.97
2022-12-10T20:41:53.535Z,95.82
2022-12-10T20:44:22.717Z,85.32
2022-12-10T20:46:52.397Z,90.45
2022-12-10T20:49:22.640Z,94.55
2022-12-10T20:51:50.988Z,83.07
2022-12-10T20:54:19.704Z,80.88
2022-12-10T20:56:47.964Z,87.50
2022-12-10T20:59:18.199Z,97.65
2022-12-10T21:01:46.243Z,77.50
2022-12-10T21:04:14.516Z,81.43
2022-12-10T21:06:43.273Z,80.13
2022-12-10T21:09:12.061Z,103.05
2022-12-10T21:11:40.289Z,72.78
2022-12-10T21:14:18.433Z,92.47
2022-12-10T21:16:58.622Z,77.07
2022-12-10T21:19:26.773Z,80.68
2022-12-10T21:21:54.744Z,80.97
2022-12-10T21:24:22.920Z,78.47
2022-12-10T21:26:51.061Z,80.22
2022-12-10T21:29:19.008Z,76.47
2022-12-10T21:31:46.986Z,75.93
2022-12-10T21:34:16.340Z,76.93
2022-12-10T21:36:44.278Z,78.85
2022-12-10T21:39:12.335Z,73.50
2022-12-10T21:41:58.050Z,71.60
2022-12-10T21:44:26.151Z,82.38
2022-12-10T21:46:54.200Z,71.18
2022-12-10T21:49:23.573Z,70.95
2022-12-10T21:51:51.502Z,65.18
2022-12-10T21:54:19.693Z,66.85
2022-12-10T21:56:47.612Z,72.38
2022-12-10T21:59:15.610Z,62.92
2022-12-10T22:01:43.643Z,80.10
2022-12-10T22:04:17.098Z,79.22
2022-12-10T22:06:47.147Z,76.57
2022-12-10T22:09:15.078Z,69.53
2022-12-10T22:11:43.415Z,71.18
2022-12-10T22:14:11.410Z,71.97
2022-12-10T22:16:43.579Z,69.03
2022-12-10T22:19:14.611Z,71.97
2022-12-10T22:21:42.776Z,68.40
2022-12-10T22:24:12.078Z,64.45
2022-12-10T22:26:40.862Z,70.50
2022-12-10T22:29:08.812Z,67.25
2022-12-10T22:31:36.903Z,73.40
2022-12-10T22:34:05.039Z,78.97
2022-12-10T22:36:33.071Z,68.80
2022-12-10T22:39:01.027Z,81.57
2022-12-10T22:41:30.399Z,69.72
2022-12-10T22:43:58.379Z,71.72
2022-12-10T22:46:26.572Z,75.53
2022-12-10T22:48:54.612Z,87.20
2022-12-10T22:51:22.854Z,58.63
2022-12-10T22:53:50.956Z,72.30
2022-12-10T22:56:19.489Z,78.88
2022-12-10T22:58:49.069Z,84.78
2022-12-10T23:01:18.635Z,77.10
2022-12-10T23:03:46.965Z,66.35
2022-12-10T23:06:14.978Z,77.80
2022-12-10T23:08:43.291Z,79.75
2022-12-10T23:11:12.392Z,73.03
2022-12-10T23:13:41.016Z,85.55
2022-12-10T23:16:13.083Z,70.63
2022-12-10T23:18:41.985Z,76.72
2022-12-10T23:21:17.179Z,83.95
2022-12-10T23:23:45.485Z,70.93
2022-12-10T23:26:14.405Z,75.82
2022-12-10T23:28:43.076Z,73.78
2022-12-10T23:31:12.440Z,71.15
2022-12-10T23:33:40.624Z,75.70
2022-12-10T23:36:10.093Z,70.13
2022-12-10T23:38:38.409Z,79.28
2022-12-10T23:41:08.394Z,67.60
2022-12-10T23:43:36.735Z,79.78
2022-12-10T23:46:05.107Z,73.25
2022-12-10T23:48:34.882Z,75.50
2022-12-10T23:51:02.986Z,79.05
2022-12-10T23:53:31.461Z,84.40
2022-12-10T23:55:59.888Z,79.32
2022-12-10T23:58:28.288Z,75.65
